sensor_id;sensor_type;location;lat;lon;timestamp;temperature;humidity
9973;DHT22;5027;53.560;10.062;2022-12-24T00:01:42;10.50;99.90
9973;DHT22;5027;53.560;10.062;2022-12-24T00:04:09;10.50;99.90
9973;DHT22;5027;53.560;10.062;2022-12-24T00:06:35;10.50;99.90
9973;DHT22;5027;53.560;10.062;2022-12-24T00:09:02;10.50;99.90
9973;DHT22;5027;53.560;10.062;2022-12-24T00:11:29;10.50;99.90
9973;DHT22;5027;53.560;10.062;2022-12-24T00:13:56;10.50;99.90
9973;DHT22;5027;53.560;10.062;2022-12-24T00:16:22;10.50;99.90
9973;DHT22;5027;53.560;10.062;2022-12-24T00:18:49;10.50;99.90
9973;DHT22;5027;53.560;10.062;2022-12-24T00:21:16;10.50;99.90
9973;DHT22;5027;53.560;10.062;2022-12-24T00:23:42;10.50;99.90
9973;DHT22;5027;53.560;10.062;2022-12-24T00:26:10;10.50;99.90
9973;DHT22;5027;53.560;10.062;2022-12-24T00:28:36;10.50;99.90
9973;DHT22;5027;53.560;10.062;2022-12-24T00:31:14;10.50;99.90
9973;DHT22;5027;53.560;10.062;2022-12-24T00:33:42;10.50;99.90
9973;DHT22;5027;53.560;10.062;2022-12-24T00:36:09;10.50;99.90
9973;DHT22;5027;53.560;10.062;2022-12-24T00:38:36;10.40;99.90
9973;DHT22;5027;53.560;10.062;2022-12-24T00:41:04;10.50;99.90
9973;DHT22;5027;53.560;10.062;2022-12-24T00:43:31;10.50;99.90
9973;DHT22;5027;53.560;10.062;2022-12-24T00:45:58;10.50;99.90
9973;DHT22;5027;53.560;10.062;2022-12-24T00:48:25;10.40;99.90
9973;DHT22;5027;53.560;10.062;2022-12-24T00:50:52;10.50;99.90
9973;DHT22;5027;53.560;10.062;2022-12-24T00:53:18;10.40;99.90
9973;DHT22;5027;53.560;10.062;2022-12-24T00:55:45;10.40;99.90
9973;DHT22;5027;53.560;10.062;2022-12-24T00:58:12;10.40;99.90
9973;DHT22;5027;53.560;10.062;2022-12-24T01:00:38;10.50;99.90
9973;DHT22;5027;53.560;10.062;2022-12-24T01:03:05;10.50;99.90
9973;DHT22;5027;53.560;10.062;2022-12-24T01:05:32;10.40;99.90
9973;DHT22;5027;53.560;10.062;2022-12-24T01:07:58;10.50;99.90
9973;DHT22;5027;53.560;10.062;2022-12-24T01:10:25;10.40;99.90
9973;DHT22;5027;53.560;10.062;2022-12-24T01:12:51;10.40;99.90
9973;DHT22;5027;53.560;10.062;2022-12-24T01:15:18;10.40;99.90
9973;DHT22;5027;53.560;10.062;2022-12-24T01:17:45;10.40;99.90
9973;DHT22;5027;53.560;10.062;2022-12-24T01:20:14;10.40;99.90
9973;DHT22;5027;53.560;10.062;2022-12-24T01:22:41;10.40;99.90
9973;DHT22;5027;53.560;10.062;2022-12-24T01:25:08;10.40;99.90
9973;DHT22;5027;53.560;10.062;2022-12-24T01:27:35;10.40;99.90
9973;DHT22;5027;53.560;10.062;2022-12-24T01:30:04;10.40;99.90
9973;DHT22;5027;53.560;10.062;2022-12-24T01:32:30;10.40;99.90
9973;DHT22;5027;53.560;10.062;2022-12-24T01:34:57;10.40;99.90
9973;DHT22;5027;53.560;10.062;2022-12-24T01:37:25;10.40;99.90
9973;DHT22;5027;53.560;10.062;2022-12-24T01:39:52;10.40;99.90
9973;DHT22;5027;53.560;10.062;2022-12-24T01:42:42;10.40;99.90
9973;DHT22;5027;53.560;10.062;2022-12-24T01:45:49;10.40;99.90
9973;DHT22;5027;53.560;10.062;2022-12-24T01:51:06;10.40;99.90
9973;DHT22;5027;53.560;10.062;2022-12-24T01:53:36;10.40;99.90
9973;DHT22;5027;53.560;10.062;2022-12-24T01:56:05;10.40;99.90
9973;DHT22;5027;53.560;10.062;2022-12-24T01:58:34;10.40;99.90
9973;DHT22;5027;53.560;10.062;2022-12-24T02:01:05;10.40;99.90
9973;DHT22;5027;53.560;10.062;2022-12-24T02:03:32;10.40;99.90
9973;DHT22;5027;53.560;10.062;2022-12-24T02:05:59;10.40;99.90
9973;DHT22;5027;53.560;10.062;2022-12-24T02:08:26;10.40;99.90
9973;DHT22;5027;53.560;10.062;2022-12-24T02:11:20;10.40;99.90
9973;DHT22;5027;53.560;10.062;2022-12-24T02:13:55;10.40;99.90
9973;DHT22;5027;53.560;10.062;2022-12-24T02:16:45;10.40;99.90
9973;DHT22;5027;53.560;10.062;2022-12-24T02:19:26;10.40;99.90
9973;DHT22;5027;53.560;10.062;2022-12-24T02:22:05;10.40;99.90
9973;DHT22;5027;53.560;10.062;2022-12-24T02:25:31;10.40;99.90
9973;DHT22;5027;53.560;10.062;2022-12-24T02:30:40;10.40;99.90
9973;DHT22;5027;53.560;10.062;2022-12-24T02:33:18;10.40;99.90
9973;DHT22;5027;53.560;10.062;2022-12-24T02:35:59;10.40;99.90
9973;DHT22;5027;53.560;10.062;2022-12-24T02:38:49;10.40;99.90
9973;DHT22;5027;53.560;10.062;2022-12-24T02:41:30;10.30;99.90
9973;DHT22;5027;53.560;10.062;2022-12-24T02:44:25;10.40;99.90
9973;DHT22;5027;53.560;10.062;2022-12-24T02:46:53;10.40;99.90
9973;DHT22;5027;53.560;10.062;2022-12-24T02:49:21;10.40;99.90
9973;DHT22;5027;53.560;10.062;2022-12-24T02:51:47;10.40;99.90
9973;DHT22;5027;53.560;10.062;2022-12-24T02:54:14;10.40;99.90
9973;DHT22;5027;53.560;10.062;2022-12-24T02:59:58;10.40;99.90
9973;DHT22;5027;53.560;10.062;2022-12-24T03:05:43;10.30;99.90
9973;DHT22;5027;53.560;10.062;2022-12-24T03:08:22;10.30;99.90
9973;DHT22;5027;53.560;10.062;2022-12-24T03:11:12;10.40;99.90
9973;DHT22;5027;53.560;10.062;2022-12-24T03:13:41;10.40;99.90
9973;DHT22;5027;53.560;10.062;2022-12-24T03:16:11;10.30;99.90
9973;DHT22;5027;53.560;10.062;2022-12-24T03:18:43;10.30;99.90
9973;DHT22;5027;53.560;10.062;2022-12-24T03:21:16;10.40;99.90
9973;DHT22;5027;53.560;10.062;2022-12-24T03:23:45;10.40;99.90
9973;DHT22;5027;53.560;10.062;2022-12-24T03:26:15;10.30;99.90
9973;DHT22;5027;53.560;10.062;2022-12-24T03:28:43;10.30;99.90
9973;DHT22;5027;53.560;10.062;2022-12-24T03:31:10;10.30;99.90
9973;DHT22;5027;53.560;10.062;2022-12-24T03:33:38;10.30;99.90
9973;DHT22;5027;53.560;10.062;2022-12-24T03:36:05;10.30;99.90
9973;DHT22;5027;53.560;10.062;2022-12-24T03:38:33;10.30;99.90
9973;DHT22;5027;53.560;10.062;2022-12-24T03:41:00;10.30;99.90
9973;DHT22;5027;53.560;10.062;2022-12-24T03:43:27;10.30;99.90
9973;DHT22;5027;53.560;10.062;2022-12-24T03:45:54;10.30;99.90
9973;DHT22;5027;53.560;10.062;2022-12-24T03:48:21;10.30;99.90
9973;DHT22;5027;53.560;10.062;2022-12-24T03:50:52;10.30;99.90
9973;DHT22;5027;53.560;10.062;2022-12-24T03:53:19;10.30;99.90
9973;DHT22;5027;53.560;10.062;2022-12-24T03:55:46;10.30;99.90
9973;DHT22;5027;53.560;10.062;2022-12-24T03:58:12;10.30;99.90
9973;DHT22;5027;53.560;10.062;2022-12-24T04:00:39;10.30;99.90
9973;DHT22;5027;53.560;10.062;2022-12-24T04:03:06;10.30;99.90
9973;DHT22;5027;53.560;10.062;2022-12-24T04:05:32;10.30;99.90
9973;DHT22;5027;53.560;10.062;2022-12-24T04:07:59;10.40;99.90
9973;DHT22;5027;53.560;10.062;2022-12-24T04:10:26;10.30;99.90
9973;DHT22;5027;53.560;10.062;2022-12-24T04:12:52;10.30;99.90
9973;DHT22;5027;53.560;10.062;2022-12-24T04:15:19;10.30;99.90
9973;DHT22;5027;53.560;10.062;2022-12-24T04:17:45;10.30;99.90
9973;DHT22;5027;53.560;10.062;2022-12-24T04:20:12;10.30;99.90
9973;DHT22;5027;53.560;10.062;2022-12-24T04:22:39;10.30;99.90
9973;DHT22;5027;53.560;10.062;2022-12-24T04:25:06;10.30;99.90
9973;DHT22;5027;53.560;10.062;2022-12-24T04:27:33;10.30;99.90
9973;DHT22;5027;53.560;10.062;2022-12-24T04:29:59;10.30;99.90
9973;DHT22;5027;53.560;10.062;2022-12-24T04:32:26;10.30;99.90
9973;DHT22;5027;53.560;10.062;2022-12-24T04:34:53;10.30;99.90
9973;DHT22;5027;53.560;10.062;2022-12-24T04:37:19;10.40;99.90
9973;DHT22;5027;53.560;10.062;2022-12-24T04:39:46;10.40;99.90
9973;DHT22;5027;53.560;10.062;2022-12-24T04:42:12;10.40;99.90
9973;DHT22;5027;53.560;10.062;2022-12-24T04:44:39;10.30;99.90
9973;DHT22;5027;53.560;10.062;2022-12-24T04:47:06;10.30;99.90
9973;DHT22;5027;53.560;10.062;2022-12-24T04:49:32;10.30;99.90
9973;DHT22;5027;53.560;10.062;2022-12-24T04:51:59;10.40;99.90
9973;DHT22;5027;53.560;10.062;2022-12-24T04:54:25;10.40;99.90
9973;DHT22;5027;53.560;10.062;2022-12-24T04:56:52;10.40;99.90
9973;DHT22;5027;53.560;10.062;2022-12-24T04:59:19;10.40;99.90
9973;DHT22;5027;53.560;10.062;2022-12-24T05:01:45;10.30;99.90
9973;DHT22;5027;53.560;10.062;2022-12-24T05:04:12;10.40;99.90
9973;DHT22;5027;53.560;10.062;2022-12-24T05:06:39;10.30;99.90
9973;DHT22;5027;53.560;10.062;2022-12-24T05:09:06;10.30;99.90
9973;DHT22;5027;53.560;10.062;2022-12-24T05:11:32;10.30;99.90
9973;DHT22;5027;53.560;10.062;2022-12-24T05:13:59;10.40;99.90
9973;DHT22;5027;53.560;10.062;2022-12-24T05:16:26;10.30;99.90
9973;DHT22;5027;53.560;10.062;2022-12-24T05:18:52;10.30;99.90
9973;DHT22;5027;53.560;10.062;2022-12-24T05:21:21;10.30;99.90
9973;DHT22;5027;53.560;10.062;2022-12-24T05:23:49;10.30;99.90
9973;DHT22;5027;53.560;10.062;2022-12-24T05:26:39;10.30;99.90
9973;DHT22;5027;53.560;10.062;2022-12-24T05:29:07;10.30;99.90
9973;DHT22;5027;53.560;10.062;2022-12-24T05:31:34;10.30;99.90
9973;DHT22;5027;53.560;10.062;2022-12-24T05:34:01;10.30;99.90
9973;DHT22;5027;53.560;10.062;2022-12-24T05:36:28;10.30;99.90
9973;DHT22;5027;53.560;10.062;2022-12-24T05:38:55;10.40;99.90
9973;DHT22;5027;53.560;10.062;2022-12-24T05:41:22;10.40;99.90
9973;DHT22;5027;53.560;10.062;2022-12-24T05:43:49;10.30;99.90
9973;DHT22;5027;53.560;10.062;2022-12-24T05:46:18;10.40;99.90
9973;DHT22;5027;53.560;10.062;2022-12-24T05:48:45;10.30;99.90
9973;DHT22;5027;53.560;10.062;2022-12-24T05:51:14;10.30;99.90
9973;DHT22;5027;53.560;10.062;2022-12-24T05:53:41;10.30;99.90
9973;DHT22;5027;53.560;10.062;2022-12-24T05:56:10;10.30;99.90
9973;DHT22;5027;53.560;10.062;2022-12-24T05:58:37;10.30;99.90
9973;DHT22;5027;53.560;10.062;2022-12-24T06:01:04;10.30;99.90
9973;DHT22;5027;53.560;10.062;2022-12-24T06:03:32;10.30;99.90
9973;DHT22;5027;53.560;10.062;2022-12-24T06:06:01;10.30;99.90
9973;DHT22;5027;53.560;10.062;2022-12-24T06:08:28;10.30;99.90
9973;DHT22;5027;53.560;10.062;2022-12-24T06:10:57;10.30;99.90
9973;DHT22;5027;53.560;10.062;2022-12-24T06:13:24;10.30;99.90
9973;DHT22;5027;53.560;10.062;2022-12-24T06:15:55;10.30;99.90
9973;DHT22;5027;53.560;10.062;2022-12-24T06:18:22;10.30;99.90
9973;DHT22;5027;53.560;10.062;2022-12-24T06:20:51;10.30;99.90
9973;DHT22;5027;53.560;10.062;2022-12-24T06:23:18;10.30;99.90
9973;DHT22;5027;53.560;10.062;2022-12-24T06:25:45;10.30;99.90
9973;DHT22;5027;53.560;10.062;2022-12-24T06:28:13;10.30;99.90
9973;DHT22;5027;53.560;10.062;2022-12-24T06:30:40;10.30;99.90
9973;DHT22;5027;53.560;10.062;2022-12-24T06:33:07;10.30;99.90
9973;DHT22;5027;53.560;10.062;2022-12-24T06:35:34;10.30;99.90
9973;DHT22;5027;53.560;10.062;2022-12-24T06:38:00;10.30;99.90
9973;DHT22;5027;53.560;10.062;2022-12-24T06:40:27;10.30;99.90
9973;DHT22;5027;53.560;10.062;2022-12-24T06:42:54;10.30;99.90
9973;DHT22;5027;53.560;10.062;2022-12-24T06:45:20;10.30;99.90
9973;DHT22;5027;53.560;10.062;2022-12-24T06:47:47;10.30;99.90
9973;DHT22;5027;53.560;10.062;2022-12-24T06:50:13;10.30;99.90
9973;DHT22;5027;53.560;10.062;2022-12-24T06:52:40;10.30;99.90
9973;DHT22;5027;53.560;10.062;2022-12-24T06:55:07;10.30;99.90
9973;DHT22;5027;53.560;10.062;2022-12-24T06:57:34;10.30;99.90
9973;DHT22;5027;53.560;10.062;2022-12-24T07:00:01;10.30;99.90
9973;DHT22;5027;53.560;10.062;2022-12-24T07:02:27;10.30;99.90
9973;DHT22;5027;53.560;10.062;2022-12-24T07:04:54;10.30;99.90
9973;DHT22;5027;53.560;10.062;2022-12-24T07:07:21;10.30;99.90
9973;DHT22;5027;53.560;10.062;2022-12-24T07:09:47;10.30;99.90
9973;DHT22;5027;53.560;10.062;2022-12-24T07:12:14;10.30;99.90
9973;DHT22;5027;53.560;10.062;2022-12-24T07:14:41;10.30;99.90
9973;DHT22;5027;53.560;10.062;2022-12-24T07:17:08;10.30;99.90
9973;DHT22;5027;53.560;10.062;2022-12-24T07:19:34;10.30;99.90
9973;DHT22;5027;53.560;10.062;2022-12-24T07:22:01;10.30;99.90
9973;DHT22;5027;53.560;10.062;2022-12-24T07:24:28;10.30;99.90
9973;DHT22;5027;53.560;10.062;2022-12-24T07:26:55;10.30;99.90
9973;DHT22;5027;53.560;10.062;2022-12-24T07:29:21;10.30;99.90
9973;DHT22;5027;53.560;10.062;2022-12-24T07:31:48;10.30;99.90
9973;DHT22;5027;53.560;10.062;2022-12-24T07:34:15;10.30;99.90
9973;DHT22;5027;53.560;10.062;2022-12-24T07:36:41;10.30;99.90
9973;DHT22;5027;53.560;10.062;2022-12-24T07:39:08;10.30;99.90
9973;DHT22;5027;53.560;10.062;2022-12-24T07:41:34;10.30;99.90
9973;DHT22;5027;53.560;10.062;2022-12-24T07:44:11;10.20;99.90
9973;DHT22;5027;53.560;10.062;2022-12-24T07:46:38;10.20;99.90
9973;DHT22;5027;53.560;10.062;2022-12-24T07:49:05;10.30;99.90
9973;DHT22;5027;53.560;10.062;2022-12-24T07:51:32;10.20;99.90
9973;DHT22;5027;53.560;10.062;2022-12-24T07:53:59;10.20;99.90
9973;DHT22;5027;53.560;10.062;2022-12-24T07:56:25;10.30;99.90
9973;DHT22;5027;53.560;10.062;2022-12-24T07:58:52;10.20;99.90
9973;DHT22;5027;53.560;10.062;2022-12-24T08:01:19;10.20;99.90
9973;DHT22;5027;53.560;10.062;2022-12-24T08:03:46;10.20;99.90
9973;DHT22;5027;53.560;10.062;2022-12-24T08:06:13;10.30;99.90
9973;DHT22;5027;53.560;10.062;2022-12-24T08:08:39;10.30;99.90
9973;DHT22;5027;53.560;10.062;2022-12-24T08:11:06;10.20;99.90
9973;DHT22;5027;53.560;10.062;2022-12-24T08:13:33;10.20;99.90
9973;DHT22;5027;53.560;10.062;2022-12-24T08:16:00;10.30;99.90
9973;DHT22;5027;53.560;10.062;2022-12-24T08:18:26;10.20;99.90
9973;DHT22;5027;53.560;10.062;2022-12-24T08:20:53;10.20;99.90
9973;DHT22;5027;53.560;10.062;2022-12-24T08:23:20;10.20;99.90
9973;DHT22;5027;53.560;10.062;2022-12-24T08:25:47;10.20;99.90
9973;DHT22;5027;53.560;10.062;2022-12-24T08:28:18;10.20;99.90
9973;DHT22;5027;53.560;10.062;2022-12-24T08:30:48;10.20;99.90
9973;DHT22;5027;53.560;10.062;2022-12-24T08:33:15;10.20;99.90
9973;DHT22;5027;53.560;10.062;2022-12-24T08:35:49;10.30;99.90
9973;DHT22;5027;53.560;10.062;2022-12-24T08:38:16;10.30;99.90
9973;DHT22;5027;53.560;10.062;2022-12-24T08:40:43;10.20;99.90
9973;DHT22;5027;53.560;10.062;2022-12-24T08:43:09;10.20;99.90
9973;DHT22;5027;53.560;10.062;2022-12-24T08:45:38;10.20;99.90
9973;DHT22;5027;53.560;10.062;2022-12-24T08:48:07;10.30;99.90
9973;DHT22;5027;53.560;10.062;2022-12-24T08:50:36;10.20;99.90
9973;DHT22;5027;53.560;10.062;2022-12-24T08:53:03;10.20;99.90
9973;DHT22;5027;53.560;10.062;2022-12-24T08:55:30;10.20;99.90
9973;DHT22;5027;53.560;10.062;2022-12-24T08:57:58;10.20;99.90
9973;DHT22;5027;53.560;10.062;2022-12-24T09:00:25;10.20;99.90
9973;DHT22;5027;53.560;10.062;2022-12-24T09:02:51;10.20;99.90
9973;DHT22;5027;53.560;10.062;2022-12-24T09:05:18;10.20;99.90
9973;DHT22;5027;53.560;10.062;2022-12-24T09:07:45;10.20;99.90
9973;DHT22;5027;53.560;10.062;2022-12-24T09:10:11;10.20;99.90
9973;DHT22;5027;53.560;10.062;2022-12-24T09:12:38;10.20;99.90
9973;DHT22;5027;53.560;10.062;2022-12-24T09:15:05;10.20;99.90
9973;DHT22;5027;53.560;10.062;2022-12-24T09:17:34;10.20;99.90
9973;DHT22;5027;53.560;10.062;2022-12-24T09:20:03;10.20;99.90
9973;DHT22;5027;53.560;10.062;2022-12-24T09:22:29;10.20;99.90
9973;DHT22;5027;53.560;10.062;2022-12-24T09:24:56;10.30;99.90
9973;DHT22;5027;53.560;10.062;2022-12-24T09:27:23;10.30;99.90
9973;DHT22;5027;53.560;10.062;2022-12-24T09:29:49;10.30;99.90
9973;DHT22;5027;53.560;10.062;2022-12-24T09:32:16;10.20;99.90
9973;DHT22;5027;53.560;10.062;2022-12-24T09:34:43;10.20;99.90
9973;DHT22;5027;53.560;10.062;2022-12-24T09:37:09;10.30;99.90
9973;DHT22;5027;53.560;10.062;2022-12-24T09:39:36;10.20;99.90
9973;DHT22;5027;53.560;10.062;2022-12-24T09:44:57;10.20;99.90
9973;DHT22;5027;53.560;10.062;2022-12-24T09:47:38;10.20;99.90
9973;DHT22;5027;53.560;10.062;2022-12-24T09:53:04;10.20;99.90
9973;DHT22;5027;53.560;10.062;2022-12-24T09:55:37;10.20;99.90
9973;DHT22;5027;53.560;10.062;2022-12-24T09:58:06;10.30;99.90
9973;DHT22;5027;53.560;10.062;2022-12-24T10:00:41;10.30;99.90
9973;DHT22;5027;53.560;10.062;2022-12-24T10:03:16;10.30;99.90
9973;DHT22;5027;53.560;10.062;2022-12-24T10:08:33;10.20;99.90
9973;DHT22;5027;53.560;10.062;2022-12-24T10:14:12;10.20;99.90
9973;DHT22;5027;53.560;10.062;2022-12-24T10:22:52;10.20;99.90
9973;DHT22;5027;53.560;10.062;2022-12-24T10:27:53;10.20;99.90
9973;DHT22;5027;53.560;10.062;2022-12-24T10:30:22;10.20;99.90
9973;DHT22;5027;53.560;10.062;2022-12-24T10:32:51;10.20;99.90
9973;DHT22;5027;53.560;10.062;2022-12-24T10:35:25;10.30;99.90
9973;DHT22;5027;53.560;10.062;2022-12-24T10:37:54;10.20;99.90
9973;DHT22;5027;53.560;10.062;2022-12-24T10:42:58;10.20;99.90
9973;DHT22;5027;53.560;10.062;2022-12-24T10:45:29;10.30;99.90
9973;DHT22;5027;53.560;10.062;2022-12-24T10:48:00;10.30;99.90
9973;DHT22;5027;53.560;10.062;2022-12-24T10:50:34;10.30;99.90
9973;DHT22;5027;53.560;10.062;2022-12-24T10:53:26;10.30;99.90
9973;DHT22;5027;53.560;10.062;2022-12-24T10:56:04;10.20;99.90
9973;DHT22;5027;53.560;10.062;2022-12-24T10:58:32;10.20;99.90
9973;DHT22;5027;53.560;10.062;2022-12-24T11:00:59;10.20;99.90
9973;DHT22;5027;53.560;10.062;2022-12-24T11:03:32;10.20;99.90
9973;DHT22;5027;53.560;10.062;2022-12-24T11:06:03;10.20;99.90
9973;DHT22;5027;53.560;10.062;2022-12-24T11:08:30;10.20;99.90
9973;DHT22;5027;53.560;10.062;2022-12-24T11:11:02;10.20;99.90
9973;DHT22;5027;53.560;10.062;2022-12-24T11:13:38;10.30;99.90
9973;DHT22;5027;53.560;10.062;2022-12-24T11:18:54;10.30;99.90
9973;DHT22;5027;53.560;10.062;2022-12-24T11:21:25;10.30;99.90
9973;DHT22;5027;53.560;10.062;2022-12-24T11:23:58;10.30;99.90
9973;DHT22;5027;53.560;10.062;2022-12-24T11:26:28;10.30;99.90
9973;DHT22;5027;53.560;10.062;2022-12-24T11:29:23;10.30;99.90
9973;DHT22;5027;53.560;10.062;2022-12-24T11:31:51;10.20;99.90
9973;DHT22;5027;53.560;10.062;2022-12-24T11:34:25;10.30;99.90
9973;DHT22;5027;53.560;10.062;2022-12-24T11:36:53;10.30;99.90
9973;DHT22;5027;53.560;10.062;2022-12-24T11:39:24;10.30;99.90
9973;DHT22;5027;53.560;10.062;2022-12-24T11:41:52;10.30;99.90
9973;DHT22;5027;53.560;10.062;2022-12-24T11:44:26;10.30;99.90
9973;DHT22;5027;53.560;10.062;2022-12-24T11:46:54;10.30;99.90
9973;DHT22;5027;53.560;10.062;2022-12-24T11:49:29;10.30;99.90
9973;DHT22;5027;53.560;10.062;2022-12-24T11:57:57;10.30;99.90
9973;DHT22;5027;53.560;10.062;2022-12-24T12:00:26;10.40;99.90
9973;DHT22;5027;53.560;10.062;2022-12-24T12:02:56;10.40;99.90
9973;DHT22;5027;53.560;10.062;2022-12-24T12:05:31;10.40;99.90
9973;DHT22;5027;53.560;10.062;2022-12-24T12:08:09;10.40;99.90
9973;DHT22;5027;53.560;10.062;2022-12-24T12:10:40;10.40;99.90
9973;DHT22;5027;53.560;10.062;2022-12-24T12:13:14;10.30;99.90
9973;DHT22;5027;53.560;10.062;2022-12-24T12:18:20;10.30;99.90
9973;DHT22;5027;53.560;10.062;2022-12-24T12:20:53;10.30;99.90
9973;DHT22;5027;53.560;10.062;2022-12-24T12:23:30;10.40;99.90
9973;DHT22;5027;53.560;10.062;2022-12-24T12:26:17;10.30;99.90
9973;DHT22;5027;53.560;10.062;2022-12-24T12:29:24;10.40;99.90
9973;DHT22;5027;53.560;10.062;2022-12-24T12:31:57;10.40;99.90
9973;DHT22;5027;53.560;10.062;2022-12-24T12:34:38;10.40;99.90
9973;DHT22;5027;53.560;10.062;2022-12-24T12:37:20;10.50;99.90
9973;DHT22;5027;53.560;10.062;2022-12-24T12:39:50;10.50;99.90
9973;DHT22;5027;53.560;10.062;2022-12-24T12:42:32;10.50;99.90
9973;DHT22;5027;53.560;10.062;2022-12-24T12:50:27;10.60;99.90
9973;DHT22;5027;53.560;10.062;2022-12-24T12:53:23;10.70;99.90
9973;DHT22;5027;53.560;10.062;2022-12-24T13:15:34;10.60;99.90
9973;DHT22;5027;53.560;10.062;2022-12-24T13:21:28;10.70;99.90
9973;DHT22;5027;53.560;10.062;2022-12-24T13:24:25;10.70;99.90
9973;DHT22;5027;53.560;10.062;2022-12-24T13:27:14;10.70;99.90
9973;DHT22;5027;53.560;10.062;2022-12-24T13:29:57;10.70;99.90
9973;DHT22;5027;53.560;10.062;2022-12-24T13:32:50;10.70;99.90
9973;DHT22;5027;53.560;10.062;2022-12-24T13:37:48;10.60;99.90
9973;DHT22;5027;53.560;10.062;2022-12-24T13:40:22;10.60;99.90
9973;DHT22;5027;53.560;10.062;2022-12-24T13:43:06;10.60;99.90
9973;DHT22;5027;53.560;10.062;2022-12-24T13:50:57;10.60;99.90
9973;DHT22;5027;53.560;10.062;2022-12-24T13:58:50;10.50;99.90
9973;DHT22;5027;53.560;10.062;2022-12-24T14:01:32;10.60;99.90
9973;DHT22;5027;53.560;10.062;2022-12-24T14:04:03;10.60;99.90
9973;DHT22;5027;53.560;10.062;2022-12-24T14:06:31;10.70;99.90
9973;DHT22;5027;53.560;10.062;2022-12-24T14:09:14;10.70;99.90
9973;DHT22;5027;53.560;10.062;2022-12-24T14:14:26;10.70;99.90
9973;DHT22;5027;53.560;10.062;2022-12-24T14:16:57;10.70;99.90
9973;DHT22;5027;53.560;10.062;2022-12-24T14:19:43;10.70;99.90
9973;DHT22;5027;53.560;10.062;2022-12-24T14:22:33;10.70;99.90
9973;DHT22;5027;53.560;10.062;2022-12-24T14:25:20;10.70;99.90
9973;DHT22;5027;53.560;10.062;2022-12-24T14:28:04;10.70;99.90
9973;DHT22;5027;53.560;10.062;2022-12-24T14:30:31;10.70;99.90
9973;DHT22;5027;53.560;10.062;2022-12-24T14:32:58;10.70;99.90
9973;DHT22;5027;53.560;10.062;2022-12-24T14:35:43;10.70;99.90
9973;DHT22;5027;53.560;10.062;2022-12-24T14:38:15;10.70;99.90
9973;DHT22;5027;53.560;10.062;2022-12-24T14:41:23;10.70;99.90
9973;DHT22;5027;53.560;10.062;2022-12-24T14:44:29;10.70;99.90
9973;DHT22;5027;53.560;10.062;2022-12-24T14:47:33;10.70;99.90
9973;DHT22;5027;53.560;10.062;2022-12-24T14:53:18;10.70;99.90
9973;DHT22;5027;53.560;10.062;2022-12-24T14:55:48;10.70;99.90
9973;DHT22;5027;53.560;10.062;2022-12-24T14:58:23;10.70;99.90
9973;DHT22;5027;53.560;10.062;2022-12-24T15:00:51;10.70;99.90
9973;DHT22;5027;53.560;10.062;2022-12-24T15:03:21;10.70;99.90
9973;DHT22;5027;53.560;10.062;2022-12-24T15:06:00;10.70;99.90
9973;DHT22;5027;53.560;10.062;2022-12-24T15:08:31;10.70;99.90
9973;DHT22;5027;53.560;10.062;2022-12-24T15:11:01;10.70;99.90
9973;DHT22;5027;53.560;10.062;2022-12-24T15:13:38;10.70;99.90
9973;DHT22;5027;53.560;10.062;2022-12-24T15:16:10;10.60;99.90
9973;DHT22;5027;53.560;10.062;2022-12-24T15:18:42;10.60;99.90
9973;DHT22;5027;53.560;10.062;2022-12-24T15:21:24;10.60;99.90
9973;DHT22;5027;53.560;10.062;2022-12-24T15:23:51;10.60;99.90
9973;DHT22;5027;53.560;10.062;2022-12-24T15:26:22;10.60;99.90
9973;DHT22;5027;53.560;10.062;2022-12-24T15:28:50;10.60;99.90
9973;DHT22;5027;53.560;10.062;2022-12-24T15:31:25;10.60;99.90
9973;DHT22;5027;53.560;10.062;2022-12-24T15:33:55;10.70;99.90
9973;DHT22;5027;53.560;10.062;2022-12-24T15:36:30;10.70;99.90
9973;DHT22;5027;53.560;10.062;2022-12-24T15:39:01;10.70;99.90
9973;DHT22;5027;53.560;10.062;2022-12-24T15:41:40;10.70;99.90
9973;DHT22;5027;53.560;10.062;2022-12-24T15:44:37;10.70;99.90
9973;DHT22;5027;53.560;10.062;2022-12-24T15:47:08;10.70;99.90
9973;DHT22;5027;53.560;10.062;2022-12-24T15:49:39;10.60;99.90
9973;DHT22;5027;53.560;10.062;2022-12-24T15:52:12;10.60;99.90
9973;DHT22;5027;53.560;10.062;2022-12-24T15:54:44;10.60;99.90
9973;DHT22;5027;53.560;10.062;2022-12-24T15:57:13;10.60;99.90
9973;DHT22;5027;53.560;10.062;2022-12-24T15:59:59;10.60;99.90
9973;DHT22;5027;53.560;10.062;2022-12-24T16:02:40;10.60;99.90
9973;DHT22;5027;53.560;10.062;2022-12-24T16:10:43;10.70;99.90
9973;DHT22;5027;53.560;10.062;2022-12-24T16:13:23;10.70;99.90
9973;DHT22;5027;53.560;10.062;2022-12-24T16:15:56;10.70;99.90
9973;DHT22;5027;53.560;10.062;2022-12-24T16:18:45;10.70;99.90
9973;DHT22;5027;53.560;10.062;2022-12-24T16:21:36;10.70;99.90
9973;DHT22;5027;53.560;10.062;2022-12-24T16:24:21;10.70;99.90
9973;DHT22;5027;53.560;10.062;2022-12-24T16:26:49;10.80;99.90
9973;DHT22;5027;53.560;10.062;2022-12-24T16:29:16;10.70;99.90
9973;DHT22;5027;53.560;10.062;2022-12-24T16:31:49;10.70;99.90
9973;DHT22;5027;53.560;10.062;2022-12-24T16:34:17;10.80;99.90
9973;DHT22;5027;53.560;10.062;2022-12-24T16:36:45;10.80;99.90
9973;DHT22;5027;53.560;10.062;2022-12-24T16:39:18;10.80;99.90
9973;DHT22;5027;53.560;10.062;2022-12-24T16:41:56;10.80;99.90
9973;DHT22;5027;53.560;10.062;2022-12-24T16:44:43;10.80;99.90
9973;DHT22;5027;53.560;10.062;2022-12-24T16:47:16;10.80;99.90
9973;DHT22;5027;53.560;10.062;2022-12-24T16:49:43;10.90;99.90
9973;DHT22;5027;53.560;10.062;2022-12-24T16:52:20;10.80;99.90
9973;DHT22;5027;53.560;10.062;2022-12-24T16:54:48;10.80;99.90
9973;DHT22;5027;53.560;10.062;2022-12-24T16:57:15;10.80;99.90
9973;DHT22;5027;53.560;10.062;2022-12-24T16:59:42;10.90;99.90
9973;DHT22;5027;53.560;10.062;2022-12-24T17:02:14;11.00;99.90
9973;DHT22;5027;53.560;10.062;2022-12-24T17:04:41;10.90;99.90
9973;DHT22;5027;53.560;10.062;2022-12-24T17:07:14;10.90;99.90
9973;DHT22;5027;53.560;10.062;2022-12-24T17:09:41;10.90;99.90
9973;DHT22;5027;53.560;10.062;2022-12-24T17:12:09;10.90;99.90
9973;DHT22;5027;53.560;10.062;2022-12-24T17:14:37;10.90;99.90
9973;DHT22;5027;53.560;10.062;2022-12-24T17:17:04;11.00;99.90
9973;DHT22;5027;53.560;10.062;2022-12-24T17:19:31;10.90;99.90
9973;DHT22;5027;53.560;10.062;2022-12-24T17:21:57;10.90;99.90
9973;DHT22;5027;53.560;10.062;2022-12-24T17:24:24;10.90;99.90
9973;DHT22;5027;53.560;10.062;2022-12-24T17:26:50;10.90;99.90
9973;DHT22;5027;53.560;10.062;2022-12-24T17:29:17;11.00;99.90
9973;DHT22;5027;53.560;10.062;2022-12-24T17:31:44;11.00;99.90
9973;DHT22;5027;53.560;10.062;2022-12-24T17:34:10;10.90;99.90
9973;DHT22;5027;53.560;10.062;2022-12-24T17:36:37;10.90;99.90
9973;DHT22;5027;53.560;10.062;2022-12-24T17:39:04;10.90;99.90
9973;DHT22;5027;53.560;10.062;2022-12-24T17:41:31;10.90;99.90
9973;DHT22;5027;53.560;10.062;2022-12-24T17:43:57;10.90;99.90
9973;DHT22;5027;53.560;10.062;2022-12-24T17:46:24;10.80;99.90
9973;DHT22;5027;53.560;10.062;2022-12-24T17:48:51;10.80;99.90